Time;durP1;ratioP1;P1;durP2;ratioP2;P2;SDS_P1;SDS_P2;PMS_P1;PMS_P2;Temp;Humidity;BMP_temperature;BMP_pressure;BME280_temperature;BME280_humidity;BME280_pressure;Samples;Min_cycle;Max_cycle;Signal;HPM_P1;HPM_P2
2023/03/01 00:01:54;;;;;;;;;;;-0.90;99.90;;;;;;5063162;28;19972;-68
2023/03/01 00:04:20;;;;;;;;;;;-0.90;99.90;;;;;;5062804;28;20283;-68
2023/03/01 00:06:47;;;;;;;;;;;-0.90;99.90;;;;;;5062457;28;19952;-68
2023/03/01 00:09:13;;;;;;;;;;;-0.90;99.90;;;;;;5063394;28;19921;-67
2023/03/01 00:11:40;;;;;;;;;;;-1.00;99.90;;;;;;5062980;28;19921;-68
2023/03/01 00:14:08;;;;;;;;;;;-1.00;99.90;;;;;;5062945;28;19927;-68
2023/03/01 00:16:38;;;;;;;;;;;-1.00;99.90;;;;;;5062479;28;19952;-68
2023/03/01 00:19:05;;;;;;;;;;;-1.00;99.90;;;;;;5061355;28;20112;-67
2023/03/01 00:21:31;;;;;;;;;;;-1.00;99.90;;;;;;5063026;28;19920;-68
2023/03/01 00:23:58;;;;;;;;;;;-1.00;99.90;;;;;;5062928;28;20184;-68
2023/03/01 00:26:25;;;;;;;;;;;-1.10;99.90;;;;;;5061994;28;20008;-68
2023/03/01 00:28:52;;;;;;;;;;;-1.10;99.90;;;;;;5062567;28;20051;-68
2023/03/01 00:31:21;;;;;;;;;;;-1.10;99.90;;;;;;5063003;28;19921;-68
2023/03/01 00:33:48;;;;;;;;;;;-1.20;99.90;;;;;;5057881;28;19948;-68
2023/03/01 00:36:16;;;;;;;;;;;-1.20;99.90;;;;;;5041911;28;19922;-67
2023/03/01 00:38:43;;;;;;;;;;;-1.20;99.90;;;;;;5058370;28;19949;-68
2023/03/01 00:41:11;;;;;;;;;;;-1.20;99.90;;;;;;5063046;28;19927;-68
2023/03/01 00:43:37;;;;;;;;;;;-1.30;99.90;;;;;;5062901;28;19988;-68
2023/03/01 00:46:04;;;;;;;;;;;-1.30;99.90;;;;;;5062326;28;19988;-68
2023/03/01 00:48:32;;;;;;;;;;;-1.30;99.90;;;;;;5062750;28;20225;-67
2023/03/01 00:51:05;;;;;;;;;;;-1.30;99.90;;;;;;5059577;28;19984;-68
2023/03/01 00:53:31;;;;;;;;;;;-1.30;99.90;;;;;;5061297;28;19927;-68
2023/03/01 00:55:58;;;;;;;;;;;-1.30;99.90;;;;;;5061155;28;19950;-67
2023/03/01 00:58:25;;;;;;;;;;;-1.30;99.90;;;;;;5062379;28;20211;-68
2023/03/01 01:00:52;;;;;;;;;;;-1.30;99.90;;;;;;5062852;28;20172;-68
2023/03/01 01:03:18;;;;;;;;;;;-1.30;99.90;;;;;;5046587;28;19929;-68
2023/03/01 01:05:46;;;;;;;;;;;-1.30;99.90;;;;;;5042245;28;20171;-68
2023/03/01 01:08:13;;;;;;;;;;;-1.30;99.90;;;;;;5042307;28;20378;-67
2023/03/01 01:10:40;;;;;;;;;;;-1.30;99.90;;;;;;5042845;28;19921;-68
2023/03/01 01:13:06;;;;;;;;;;;-1.30;99.90;;;;;;5042646;28;20284;-68
2023/03/01 01:15:34;;;;;;;;;;;-1.30;99.90;;;;;;5058311;28;19955;-68
2023/03/01 01:18:01;;;;;;;;;;;-1.30;99.90;;;;;;5070711;28;19921;-68
2023/03/01 01:20:27;;;;;;;;;;;-1.30;99.90;;;;;;5082600;28;19987;-68
2023/03/01 01:22:55;;;;;;;;;;;-1.30;99.90;;;;;;5045085;28;19960;-68
2023/03/01 01:25:24;;;;;;;;;;;-1.30;99.90;;;;;;5064965;28;19927;-69
2023/03/01 01:27:51;;;;;;;;;;;-1.30;99.90;;;;;;5065540;28;20230;-68
2023/03/01 01:30:18;;;;;;;;;;;-1.30;99.90;;;;;;5065772;28;20259;-68
2023/03/01 01:32:44;;;;;;;;;;;-1.30;99.90;;;;;;5083708;28;20355;-68
2023/03/01 01:35:11;;;;;;;;;;;-1.30;99.90;;;;;;5085916;28;20227;-68
2023/03/01 01:37:37;;;;;;;;;;;-1.30;99.90;;;;;;5084259;28;19921;-68
2023/03/01 01:40:06;;;;;;;;;;;-1.30;99.90;;;;;;5065469;28;19959;-68
2023/03/01 01:42:33;;;;;;;;;;;-1.40;99.90;;;;;;5065686;28;19992;-68
2023/03/01 01:45:18;;;;;;;;;;;-1.40;99.90;;;;;;5065478;28;19927;-68
2023/03/01 01:47:48;;;;;;;;;;;-1.40;99.90;;;;;;5065086;28;20000;-68
2023/03/01 01:50:18;;;;;;;;;;;-1.50;99.90;;;;;;5054375;28;19928;-68
2023/03/01 01:52:46;;;;;;;;;;;-1.40;99.90;;;;;;5082438;28;19987;-68
2023/03/01 01:55:16;;;;;;;;;;;-1.40;99.90;;;;;;5045756;28;19971;-68
2023/03/01 01:57:46;;;;;;;;;;;-1.40;99.90;;;;;;5045092;28;20005;-68
2023/03/01 02:00:14;;;;;;;;;;;-1.40;99.90;;;;;;5056845;28;19935;-68
2023/03/01 02:02:42;;;;;;;;;;;-1.40;99.90;;;;;;5065032;28;19956;-68
2023/03/01 02:05:12;;;;;;;;;;;-1.40;99.90;;;;;;5065221;28;19920;-68
2023/03/01 02:07:39;;;;;;;;;;;-1.50;99.90;;;;;;5064724;28;20120;-68
2023/03/01 02:10:06;;;;;;;;;;;-1.40;99.90;;;;;;5065462;28;19931;-67
2023/03/01 02:12:34;;;;;;;;;;;-1.50;99.90;;;;;;5064560;28;20008;-68
2023/03/01 02:15:01;;;;;;;;;;;-1.50;99.90;;;;;;5064462;28;20173;-68
2023/03/01 02:17:28;;;;;;;;;;;-1.50;99.90;;;;;;5064588;28;19920;-68
2023/03/01 02:20:01;;;;;;;;;;;-1.50;99.90;;;;;;5065299;28;19991;-68
2023/03/01 02:22:29;;;;;;;;;;;-1.50;99.90;;;;;;5045245;28;19928;-67
2023/03/01 02:25:00;;;;;;;;;;;-1.60;99.90;;;;;;5044711;28;19929;-68
2023/03/01 02:27:31;;;;;;;;;;;-1.60;99.90;;;;;;5055511;28;19927;-68
2023/03/01 02:29:59;;;;;;;;;;;-1.60;99.90;;;;;;5064755;28;20209;-68
2023/03/01 02:32:26;;;;;;;;;;;-1.70;99.90;;;;;;5078513;28;19921;-68
2023/03/01 02:34:53;;;;;;;;;;;-1.70;99.90;;;;;;5062675;28;19980;-68
2023/03/01 02:37:24;;;;;;;;;;;-1.70;99.90;;;;;;5083876;28;19935;-68
2023/03/01 02:39:54;;;;;;;;;;;-1.70;99.90;;;;;;5073150;28;19920;-68
2023/03/01 02:42:23;;;;;;;;;;;-1.70;99.90;;;;;;5064609;28;20400;-68
2023/03/01 02:44:50;;;;;;;;;;;-1.70;99.90;;;;;;5064850;28;20008;-69
2023/03/01 02:47:18;;;;;;;;;;;-1.70;99.90;;;;;;5063604;28;19921;-68
2023/03/01 02:49:44;;;;;;;;;;;-1.70;99.90;;;;;;5061821;28;19927;-68
2023/03/01 02:52:29;;;;;;;;;;;-1.70;99.90;;;;;;5064634;28;19929;-68
2023/03/01 02:54:59;;;;;;;;;;;-1.70;99.90;;;;;;5064543;28;19928;-68
2023/03/01 02:57:27;;;;;;;;;;;-1.70;99.90;;;;;;5063720;28;19927;-68
2023/03/01 02:59:55;;;;;;;;;;;-1.70;99.90;;;;;;5062689;28;19959;-68
2023/03/01 03:02:35;;;;;;;;;;;-1.70;99.90;;;;;;5064074;28;19980;-68
2023/03/01 03:05:03;;;;;;;;;;;-1.70;99.90;;;;;;5047824;28;19984;-67
2023/03/01 03:07:32;;;;;;;;;;;-1.70;99.90;;;;;;5063791;28;19925;-68
2023/03/01 03:09:59;;;;;;;;;;;-1.80;99.90;;;;;;5064206;28;19927;-68
2023/03/01 03:12:26;;;;;;;;;;;-1.80;99.90;;;;;;5064018;28;19927;-68
2023/03/01 03:14:53;;;;;;;;;;;-1.80;99.90;;;;;;5065467;28;19976;-68
2023/03/01 03:17:19;;;;;;;;;;;-1.80;99.90;;;;;;5070002;28;19987;-68
2023/03/01 03:19:47;;;;;;;;;;;-1.80;99.90;;;;;;5064268;28;19988;-68
2023/03/01 03:22:14;;;;;;;;;;;-1.70;99.90;;;;;;5064288;28;19927;-68
2023/03/01 03:24:40;;;;;;;;;;;-1.80;99.90;;;;;;5064023;28;19956;-68
2023/03/01 03:27:08;;;;;;;;;;;-1.80;99.90;;;;;;5063679;28;19956;-68
2023/03/01 03:29:34;;;;;;;;;;;-1.80;99.90;;;;;;5063902;28;19920;-68
2023/03/01 03:32:01;;;;;;;;;;;-1.80;99.90;;;;;;5063580;28;20226;-68
2023/03/01 03:34:28;;;;;;;;;;;-1.80;99.90;;;;;;5063762;28;19957;-68
2023/03/01 03:36:59;;;;;;;;;;;-1.80;99.90;;;;;;5063071;28;19963;-68
2023/03/01 03:39:25;;;;;;;;;;;-1.80;99.90;;;;;;5063411;28;19963;-68
2023/03/01 03:41:52;;;;;;;;;;;-1.80;99.90;;;;;;5063586;28;19988;-68
2023/03/01 03:44:19;;;;;;;;;;;-1.80;99.90;;;;;;5063502;28;19983;-68
2023/03/01 03:46:45;;;;;;;;;;;-1.80;99.90;;;;;;5062226;28;19920;-68
2023/03/01 03:49:13;;;;;;;;;;;-1.80;99.90;;;;;;5060558;28;19988;-68
2023/03/01 03:51:40;;;;;;;;;;;-1.80;99.90;;;;;;5063396;28;20264;-68
2023/03/01 03:54:07;;;;;;;;;;;-1.80;99.90;;;;;;5063609;28;19984;-68
2023/03/01 03:56:34;;;;;;;;;;;-1.90;99.90;;;;;;5062855;28;19984;-67
2023/03/01 03:59:01;;;;;;;;;;;-1.80;99.90;;;;;;5063298;28;19921;-70
2023/03/01 04:01:28;;;;;;;;;;;-1.80;99.90;;;;;;5063489;28;19967;-68
2023/03/01 04:03:55;;;;;;;;;;;-1.90;99.90;;;;;;5063376;28;20240;-68
2023/03/01 04:06:22;;;;;;;;;;;-1.90;99.90;;;;;;5062265;28;20213;-68
2023/03/01 04:08:50;;;;;;;;;;;-1.90;99.90;;;;;;5063101;28;19989;-68
2023/03/01 04:11:27;;;;;;;;;;;-2.00;99.90;;;;;;5062993;28;19921;-68
2023/03/01 04:13:55;;;;;;;;;;;-2.00;99.90;;;;;;5063228;28;19985;-68
2023/03/01 04:16:23;;;;;;;;;;;-1.90;99.90;;;;;;5062564;28;20000;-68
2023/03/01 04:18:49;;;;;;;;;;;-2.00;99.90;;;;;;5063326;28;19944;-68
2023/03/01 04:21:16;;;;;;;;;;;-2.00;99.90;;;;;;5063463;28;19924;-68
2023/03/01 04:23:43;;;;;;;;;;;-2.00;99.90;;;;;;5062795;28;19983;-68
2023/03/01 04:26:09;;;;;;;;;;;-2.00;99.90;;;;;;5062591;28;19921;-68
2023/03/01 04:28:39;;;;;;;;;;;-2.00;99.90;;;;;;5062728;28;19984;-68
2023/03/01 04:31:12;;;;;;;;;;;-2.00;99.90;;;;;;5063246;28;19921;-68
2023/03/01 04:33:39;;;;;;;;;;;-2.00;99.90;;;;;;5063182;28;20216;-68
2023/03/01 04:36:08;;;;;;;;;;;-2.00;99.90;;;;;;5061929;28;19929;-68
2023/03/01 04:38:36;;;;;;;;;;;-2.00;99.90;;;;;;5062746;28;19971;-67
2023/03/01 04:41:11;;;;;;;;;;;-2.00;99.90;;;;;;5060232;28;19936;-68
2023/03/01 04:43:39;;;;;;;;;;;-2.00;99.90;;;;;;5062946;28;19979;-68
2023/03/01 04:46:08;;;;;;;;;;;-2.00;99.90;;;;;;5062360;28;19929;-68
2023/03/01 04:48:41;;;;;;;;;;;-2.10;99.90;;;;;;5060118;28;19932;-68
2023/03/01 04:51:08;;;;;;;;;;;-2.10;99.90;;;;;;5062789;28;19920;-67
2023/03/01 04:53:35;;;;;;;;;;;-2.10;99.90;;;;;;5062487;28;19952;-68
2023/03/01 04:56:02;;;;;;;;;;;-2.10;99.90;;;;;;5062265;28;20121;-68
2023/03/01 04:58:29;;;;;;;;;;;-2.10;99.90;;;;;;5063827;28;19943;-68
2023/03/01 05:00:57;;;;;;;;;;;-2.10;99.90;;;;;;5066863;28;20250;-67
2023/03/01 05:03:24;;;;;;;;;;;-2.10;99.90;;;;;;5066323;28;20116;-68
2023/03/01 05:05:51;;;;;;;;;;;-2.10;99.90;;;;;;5066085;28;19952;-68
2023/03/01 05:08:18;;;;;;;;;;;-2.10;99.90;;;;;;5066485;28;19944;-68
2023/03/01 05:10:46;;;;;;;;;;;-2.10;99.90;;;;;;5066186;28;19921;-68
2023/03/01 05:13:14;;;;;;;;;;;-2.10;99.90;;;;;;5066095;28;20215;-68
2023/03/01 05:15:41;;;;;;;;;;;-2.10;99.90;;;;;;5065726;28;19925;-68
2023/03/01 05:18:11;;;;;;;;;;;-2.10;99.90;;;;;;5065961;28;19967;-68
2023/03/01 05:20:38;;;;;;;;;;;-2.20;99.90;;;;;;5066295;28;19991;-68
2023/03/01 05:23:05;;;;;;;;;;;-2.10;99.90;;;;;;5066055;28;19928;-67
2023/03/01 05:25:32;;;;;;;;;;;-2.20;99.90;;;;;;5065946;28;20140;-67
2023/03/01 05:27:59;;;;;;;;;;;-2.20;99.90;;;;;;5065420;28;19929;-68
2023/03/01 05:30:29;;;;;;;;;;;-2.30;99.90;;;;;;5078650;28;19948;-67
2023/03/01 05:32:56;;;;;;;;;;;-2.30;99.90;;;;;;5086143;28;19992;-68
2023/03/01 05:35:24;;;;;;;;;;;-2.30;99.90;;;;;;5085742;28;19959;-68
2023/03/01 05:37:51;;;;;;;;;;;-2.30;99.90;;;;;;5085242;28;19928;-68
2023/03/01 05:40:19;;;;;;;;;;;-2.30;99.90;;;;;;5086123;28;20018;-68
2023/03/01 05:42:46;;;;;;;;;;;-2.40;99.90;;;;;;5085604;28;19920;-68
2023/03/01 05:45:14;;;;;;;;;;;-2.40;99.90;;;;;;5065641;28;19992;-68
2023/03/01 05:47:43;;;;;;;;;;;-2.40;99.90;;;;;;5065158;28;19927;-68
2023/03/01 05:50:11;;;;;;;;;;;-2.40;99.90;;;;;;5063363;28;19920;-67
2023/03/01 05:52:39;;;;;;;;;;;-2.40;99.90;;;;;;5065616;28;19989;-68
2023/03/01 05:55:07;;;;;;;;;;;-2.40;99.90;;;;;;5065334;28;19925;-67
2023/03/01 05:57:33;;;;;;;;;;;-2.40;99.90;;;;;;5064963;28;20123;-67
2023/03/01 06:00:00;;;;;;;;;;;-2.50;99.90;;;;;;5065553;28;20217;-67
2023/03/01 06:02:27;;;;;;;;;;;-2.40;99.90;;;;;;5067411;28;19920;-67
2023/03/01 06:04:53;;;;;;;;;;;-2.50;99.90;;;;;;5064949;28;20094;-67
2023/03/01 06:07:20;;;;;;;;;;;-2.50;99.90;;;;;;5064641;28;19952;-67
2023/03/01 06:09:48;;;;;;;;;;;-2.50;99.90;;;;;;5064471;28;19963;-67
2023/03/01 06:12:15;;;;;;;;;;;-2.50;99.90;;;;;;5076265;28;19942;-68
2023/03/01 06:14:41;;;;;;;;;;;-2.50;99.90;;;;;;5085342;28;19995;-67
2023/03/01 06:17:08;;;;;;;;;;;-2.50;99.90;;;;;;5083841;28;19944;-67
2023/03/01 06:19:34;;;;;;;;;;;-2.50;99.90;;;;;;5085053;28;19995;-70
2023/03/01 06:22:01;;;;;;;;;;;-2.50;99.90;;;;;;5073929;28;19956;-68
2023/03/01 06:24:28;;;;;;;;;;;-2.50;99.90;;;;;;5064514;28;19976;-68
2023/03/01 06:26:56;;;;;;;;;;;-2.40;99.90;;;;;;5064262;28;19952;-68
2023/03/01 06:29:23;;;;;;;;;;;-2.40;99.90;;;;;;5064780;28;19921;-70
2023/03/01 06:31:51;;;;;;;;;;;-2.40;99.90;;;;;;5062329;28;19943;-68
2023/03/01 06:34:17;;;;;;;;;;;-2.30;99.90;;;;;;5064761;28;19920;-67
2023/03/01 06:36:44;;;;;;;;;;;-2.30;99.90;;;;;;5064379;28;20176;-68
2023/03/01 06:39:10;;;;;;;;;;;-2.20;99.90;;;;;;5064863;28;19955;-67
2023/03/01 06:41:37;;;;;;;;;;;-2.30;99.90;;;;;;5064828;28;20043;-67
2023/03/01 06:44:05;;;;;;;;;;;-2.30;99.90;;;;;;5064706;28;19983;-69
2023/03/01 06:46:32;;;;;;;;;;;-2.30;99.90;;;;;;5064210;28;19927;-67
2023/03/01 06:48:59;;;;;;;;;;;-2.30;99.90;;;;;;5062010;28;19927;-66
2023/03/01 06:51:26;;;;;;;;;;;-2.30;99.90;;;;;;5064277;28;19992;-67
2023/03/01 06:53:53;;;;;;;;;;;-2.30;99.90;;;;;;5064546;28;19921;-66
2023/03/01 06:56:19;;;;;;;;;;;-2.20;99.90;;;;;;5062514;28;19985;-67
2023/03/01 06:58:46;;;;;;;;;;;-2.20;99.90;;;;;;5063694;28;20004;-67
2023/03/01 07:01:14;;;;;;;;;;;-2.20;99.90;;;;;;5064018;28;19984;-68
2023/03/01 07:03:41;;;;;;;;;;;-2.20;99.90;;;;;;5064184;28;19984;-67
2023/03/01 07:06:07;;;;;;;;;;;-2.10;99.90;;;;;;5063352;28;19952;-67
2023/03/01 07:08:34;;;;;;;;;;;-2.00;99.90;;;;;;5064647;28;19944;-68
2023/03/01 07:11:02;;;;;;;;;;;-2.00;99.90;;;;;;5064058;28;19927;-67
2023/03/01 07:13:28;;;;;;;;;;;-2.00;99.90;;;;;;5063993;28;20120;-68
2023/03/01 07:15:55;;;;;;;;;;;-2.00;99.90;;;;;;5063912;28;19935;-67
2023/03/01 07:18:23;;;;;;;;;;;-1.90;99.90;;;;;;5063588;28;19921;-67
2023/03/01 07:20:50;;;;;;;;;;;-2.00;99.90;;;;;;5064123;28;19988;-67
2023/03/01 07:23:17;;;;;;;;;;;-2.00;99.90;;;;;;5062797;28;20255;-67
2023/03/01 07:25:43;;;;;;;;;;;-2.00;99.90;;;;;;5063705;28;19929;-67
2023/03/01 07:28:10;;;;;;;;;;;-2.00;99.90;;;;;;5063443;28;20250;-67
2023/03/01 07:30:40;;;;;;;;;;;-1.90;99.90;;;;;;5060728;28;19992;-70
2023/03/01 07:33:07;;;;;;;;;;;-1.90;99.90;;;;;;5062949;28;20209;-68
2023/03/01 07:35:35;;;;;;;;;;;-1.80;99.90;;;;;;5063601;28;19983;-68
2023/03/01 07:38:02;;;;;;;;;;;-1.80;99.90;;;;;;5063507;28;19967;-68
2023/03/01 07:40:28;;;;;;;;;;;-1.80;99.90;;;;;;5071757;28;19927;-69
2023/03/01 07:42:58;;;;;;;;;;;-1.80;99.90;;;;;;5081180;28;19952;-68
2023/03/01 07:45:25;;;;;;;;;;;-1.80;99.90;;;;;;5063225;28;19920;-67
2023/03/01 07:47:52;;;;;;;;;;;-1.70;99.90;;;;;;5043957;28;19966;-69
2023/03/01 07:50:19;;;;;;;;;;;-1.70;99.90;;;;;;5043475;28;19989;-68
2023/03/01 07:52:47;;;;;;;;;;;-1.70;99.90;;;;;;5060061;28;19983;-67
2023/03/01 07:55:13;;;;;;;;;;;-1.70;99.90;;;;;;5063372;28;19921;-69
2023/03/01 07:57:40;;;;;;;;;;;-1.60;99.90;;;;;;5062961;28;19943;-69
2023/03/01 08:00:08;;;;;;;;;;;-1.60;99.90;;;;;;5062863;28;19929;-68
2023/03/01 08:02:34;;;;;;;;;;;-1.50;99.90;;;;;;5063299;28;19988;-69
2023/03/01 08:05:01;;;;;;;;;;;-1.50;99.90;;;;;;5063497;28;19920;-68
2023/03/01 08:07:27;;;;;;;;;;;-1.40;99.90;;;;;;5063022;28;20085;-69
2023/03/01 08:09:55;;;;;;;;;;;-1.40;99.90;;;;;;5063100;28;20212;-68
2023/03/01 08:12:22;;;;;;;;;;;-1.30;99.90;;;;;;5063226;28;20253;-68
2023/03/01 08:14:49;;;;;;;;;;;-1.20;99.90;;;;;;5063135;28;19927;-69
2023/03/01 08:17:18;;;;;;;;;;;-1.20;99.90;;;;;;5059765;28;19921;-69
2023/03/01 08:19:44;;;;;;;;;;;-1.10;99.90;;;;;;5062658;28;20223;-68
2023/03/01 08:22:11;;;;;;;;;;;-1.10;99.90;;;;;;5062589;28;19948;-68
2023/03/01 08:24:37;;;;;;;;;;;-1.10;99.90;;;;;;5062584;28;20216;-68
2023/03/01 08:27:05;;;;;;;;;;;-1.00;99.90;;;;;;5062336;28;19956;-69
2023/03/01 08:29:35;;;;;;;;;;;-1.00;99.90;;;;;;5060745;28;19988;-68
2023/03/01 08:32:03;;;;;;;;;;;-0.90;99.90;;;;;;5060184;28;19921;-69
2023/03/01 08:34:31;;;;;;;;;;;-0.80;99.90;;;;;;5065863;28;19920;-69
2023/03/01 08:36:57;;;;;;;;;;;-0.80;99.90;;;;;;5066397;28;19987;-69
2023/03/01 08:39:24;;;;;;;;;;;-0.70;99.90;;;;;;5067251;28;19920;-69
2023/03/01 08:41:51;;;;;;;;;;;-0.70;99.90;;;;;;5066799;28;20003;-68
2023/03/01 08:44:20;;;;;;;;;;;-0.60;99.90;;;;;;5066471;28;19983;-68
2023/03/01 08:46:49;;;;;;;;;;;-0.50;99.90;;;;;;5066364;28;19927;-69
2023/03/01 08:49:17;;;;;;;;;;;-0.50;99.90;;;;;;5066670;28;19948;-69
2023/03/01 08:51:45;;;;;;;;;;;-0.40;99.90;;;;;;5066633;28;20126;-68
2023/03/01 08:54:12;;;;;;;;;;;-0.30;99.90;;;;;;5066637;28;19963;-69
2023/03/01 08:56:39;;;;;;;;;;;-0.30;99.90;;;;;;5065646;28;19995;-69
2023/03/01 08:59:06;;;;;;;;;;;-0.20;99.90;;;;;;5066352;28;19920;-68
2023/03/01 09:01:34;;;;;;;;;;;0.00;99.90;;;;;;5065966;28;19983;-68
2023/03/01 09:04:01;;;;;;;;;;;0.00;99.90;;;;;;5065913;28;19921;-69
2023/03/01 09:06:27;;;;;;;;;;;0.10;99.90;;;;;;5065840;28;20000;-69
2023/03/01 09:08:54;;;;;;;;;;;0.20;99.90;;;;;;5066528;28;19948;-68
2023/03/01 09:11:22;;;;;;;;;;;0.30;99.90;;;;;;5066651;28;19925;-69
2023/03/01 09:13:49;;;;;;;;;;;0.40;99.90;;;;;;5065982;28;21465;-69
2023/03/01 09:16:17;;;;;;;;;;;0.40;99.90;;;;;;5065341;28;20267;-69
2023/03/01 09:18:45;;;;;;;;;;;0.50;99.90;;;;;;5065969;28;19921;-68
2023/03/01 09:21:13;;;;;;;;;;;0.60;99.90;;;;;;5065624;28;20018;-69
2023/03/01 09:23:41;;;;;;;;;;;0.60;99.90;;;;;;5065504;28;19966;-69
2023/03/01 09:26:08;;;;;;;;;;;0.70;99.90;;;;;;5065330;28;20233;-68
2023/03/01 09:28:35;;;;;;;;;;;0.70;99.90;;;;;;5065583;28;20136;-68
2023/03/01 09:31:02;;;;;;;;;;;0.80;99.90;;;;;;5065648;28;19935;-68
2023/03/01 09:33:30;;;;;;;;;;;0.80;99.90;;;;;;5065345;28;20110;-68
2023/03/01 09:35:58;;;;;;;;;;;0.90;99.90;;;;;;5065317;28;19935;-68
2023/03/01 09:38:25;;;;;;;;;;;0.90;99.90;;;;;;5065314;28;20256;-69
2023/03/01 09:40:52;;;;;;;;;;;1.10;99.90;;;;;;5065715;28;19921;-69
2023/03/01 09:43:22;;;;;;;;;;;1.10;99.90;;;;;;5065717;28;19995;-69
2023/03/01 09:45:50;;;;;;;;;;;1.20;99.90;;;;;;5064124;28;19929;-69
2023/03/01 09:48:18;;;;;;;;;;;1.20;99.90;;;;;;5065517;28;19921;-69
2023/03/01 09:50:46;;;;;;;;;;;1.40;99.90;;;;;;5065261;28;19921;-69
2023/03/01 09:53:16;;;;;;;;;;;1.50;99.90;;;;;;5065512;28;19929;-69
2023/03/01 09:55:44;;;;;;;;;;;1.50;99.90;;;;;;5045191;28;19927;-68
2023/03/01 09:58:26;;;;;;;;;;;1.60;99.90;;;;;;5044864;28;19929;-68
2023/03/01 10:00:53;;;;;;;;;;;1.70;99.90;;;;;;5045328;28;19927;-68
2023/03/01 10:03:24;;;;;;;;;;;1.80;99.90;;;;;;5045344;28;19988;-69
2023/03/01 10:05:58;;;;;;;;;;;1.80;99.90;;;;;;5044969;28;19929;-69
2023/03/01 10:08:30;;;;;;;;;;;1.90;99.90;;;;;;5044798;28;19957;-69
2023/03/01 10:10:58;;;;;;;;;;;2.00;99.90;;;;;;5044919;28;19925;-68
2023/03/01 10:13:26;;;;;;;;;;;2.20;99.90;;;;;;5044901;28;20227;-69
2023/03/01 10:15:55;;;;;;;;;;;2.20;99.90;;;;;;5044992;28;19988;-68
2023/03/01 10:18:24;;;;;;;;;;;2.20;99.90;;;;;;5044987;28;19948;-69
2023/03/01 10:20:53;;;;;;;;;;;2.30;99.90;;;;;;5044583;28;19927;-68
2023/03/01 10:23:20;;;;;;;;;;;2.40;99.90;;;;;;5044677;28;19932;-69
2023/03/01 10:25:57;;;;;;;;;;;2.60;99.90;;;;;;5063893;28;19927;-69
2023/03/01 10:28:26;;;;;;;;;;;2.60;99.90;;;;;;5064276;28;19921;-69
2023/03/01 10:30:54;;;;;;;;;;;2.70;99.90;;;;;;5058931;28;19920;-69
2023/03/01 10:33:22;;;;;;;;;;;2.80;99.90;;;;;;5061255;28;19921;-69
2023/03/01 10:35:48;;;;;;;;;;;2.90;99.90;;;;;;5044127;28;19929;-69
2023/03/01 10:38:16;;;;;;;;;;;3.00;99.90;;;;;;5043782;28;20161;-69
2023/03/01 10:41:01;;;;;;;;;;;3.20;99.90;;;;;;5046424;28;19971;-69
2023/03/01 10:43:32;;;;;;;;;;;3.30;99.90;;;;;;5044827;28;19929;-69
2023/03/01 10:45:58;;;;;;;;;;;3.40;99.90;;;;;;5058900;28;20288;-69
2023/03/01 10:48:28;;;;;;;;;;;3.50;99.90;;;;;;5044439;28;20322;-69
2023/03/01 10:51:05;;;;;;;;;;;3.60;99.90;;;;;;5044984;28;20089;-69
2023/03/01 10:53:33;;;;;;;;;;;3.70;99.90;;;;;;5041916;28;20007;-69
2023/03/01 10:56:03;;;;;;;;;;;3.80;99.90;;;;;;5044175;28;19921;-69
2023/03/01 10:58:32;;;;;;;;;;;3.90;99.90;;;;;;5044062;28;20386;-69
2023/03/01 11:01:00;;;;;;;;;;;4.00;99.90;;;;;;5044281;28;20201;-68
2023/03/01 11:03:28;;;;;;;;;;;4.10;99.90;;;;;;5043661;28;20000;-68
2023/03/01 11:05:59;;;;;;;;;;;4.20;99.90;;;;;;5044162;28;20534;-68
2023/03/01 11:08:43;;;;;;;;;;;4.30;99.90;;;;;;5044298;28;19959;-68
2023/03/01 11:11:20;;;;;;;;;;;4.40;99.90;;;;;;5044577;28;19921;-68
2023/03/01 11:13:52;;;;;;;;;;;4.50;99.90;;;;;;5054400;28;19920;-69
2023/03/01 11:16:23;;;;;;;;;;;4.60;99.90;;;;;;5063434;28;19979;-68
2023/03/01 11:18:56;;;;;;;;;;;4.60;99.90;;;;;;5063159;28;19929;-68
2023/03/01 11:21:23;;;;;;;;;;;4.70;99.90;;;;;;5063312;28;20205;-68
2023/03/01 11:23:50;;;;;;;;;;;4.80;99.90;;;;;;5062852;28;20175;-68
2023/03/01 11:26:18;;;;;;;;;;;5.00;99.90;;;;;;5062516;28;19935;-68
2023/03/01 11:28:48;;;;;;;;;;;5.10;99.90;;;;;;5062936;28;19935;-68
2023/03/01 11:31:16;;;;;;;;;;;5.30;99.90;;;;;;5063197;28;19921;-67
2023/03/01 11:33:45;;;;;;;;;;;5.30;99.90;;;;;;5062883;28;20279;-67
2023/03/01 11:36:17;;;;;;;;;;;5.40;99.90;;;;;;5062251;28;20115;-68
2023/03/01 11:38:44;;;;;;;;;;;5.50;99.90;;;;;;5051349;28;19989;-68
2023/03/01 11:41:14;;;;;;;;;;;5.60;99.90;;;;;;5043384;28;19956;-68
2023/03/01 11:43:45;;;;;;;;;;;5.80;99.90;;;;;;5045085;28;19988;-68
2023/03/01 11:46:30;;;;;;;;;;;5.80;99.90;;;;;;5062883;28;19928;-69
2023/03/01 11:49:03;;;;;;;;;;;5.90;99.90;;;;;;5056412;28;19921;-69
2023/03/01 11:51:38;;;;;;;;;;;5.90;99.90;;;;;;5063153;28;19935;-69
2023/03/01 11:54:15;;;;;;;;;;;6.10;99.90;;;;;;5059914;28;19921;-69
2023/03/01 11:56:44;;;;;;;;;;;6.10;99.90;;;;;;5062325;28;19925;-69
2023/03/01 11:59:20;;;;;;;;;;;6.10;99.90;;;;;;5063175;28;19988;-69
2023/03/01 12:01:56;;;;;;;;;;;5.90;99.90;;;;;;5063317;28;20178;-68
2023/03/01 12:04:52;;;;;;;;;;;5.90;99.90;;;;;;5062674;28;19928;-69
2023/03/01 12:07:21;;;;;;;;;;;6.00;99.90;;;;;;5062061;28;20137;-69
2023/03/01 12:09:57;;;;;;;;;;;6.20;99.90;;;;;;5062512;28;20107;-69
2023/03/01 12:12:37;;;;;;;;;;;6.30;99.90;;;;;;5062777;28;20015;-70
2023/03/01 12:15:12;;;;;;;;;;;6.50;99.90;;;;;;5062859;28;19984;-68
2023/03/01 12:17:47;;;;;;;;;;;6.90;99.90;;;;;;5061992;28;19920;-68
2023/03/01 12:20:26;;;;;;;;;;;6.90;99.90;;;;;;5062738;28;20263;-69
2023/03/01 12:23:00;;;;;;;;;;;7.00;99.90;;;;;;5062482;28;19936;-69
2023/03/01 12:25:30;;;;;;;;;;;7.10;99.90;;;;;;5062521;28;19987;-69
2023/03/01 12:28:14;;;;;;;;;;;7.30;99.90;;;;;;5061718;28;19963;-69
2023/03/01 12:30:49;;;;;;;;;;;7.40;99.90;;;;;;5041521;28;19929;-69
2023/03/01 12:33:20;;;;;;;;;;;7.40;99.90;;;;;;5062566;28;20127;-69
2023/03/01 12:35:54;;;;;;;;;;;7.50;99.90;;;;;;5062069;28;19928;-69
2023/03/01 12:38:25;;;;;;;;;;;7.50;99.90;;;;;;5053178;28;20098;-69
2023/03/01 12:41:03;;;;;;;;;;;7.70;99.90;;;;;;5044580;28;19921;-68
2023/03/01 12:43:37;;;;;;;;;;;7.60;99.90;;;;;;5062741;28;20321;-69
2023/03/01 12:46:11;;;;;;;;;;;7.60;99.90;;;;;;5061764;28;19927;-68
2023/03/01 12:48:41;;;;;;;;;;;7.60;99.90;;;;;;5062543;28;20201;-69
2023/03/01 12:51:11;;;;;;;;;;;7.70;99.90;;;;;;5062612;28;20147;-69
2023/03/01 12:53:41;;;;;;;;;;;7.60;99.90;;;;;;5059330;28;19929;-69
2023/03/01 12:56:09;;;;;;;;;;;7.60;99.90;;;;;;5061844;28;20123;-68
2023/03/01 12:58:38;;;;;;;;;;;7.70;99.90;;;;;;5062394;28;19921;-69
2023/03/01 13:01:14;;;;;;;;;;;7.80;99.90;;;;;;5061624;28;20217;-69
2023/03/01 13:03:49;;;;;;;;;;;7.80;99.90;;;;;;5062211;28;19920;-69
2023/03/01 13:06:21;;;;;;;;;;;8.00;99.90;;;;;;5061347;28;19956;-69
2023/03/01 13:08:50;;;;;;;;;;;8.10;99.90;;;;;;5062374;28;19921;-69
2023/03/01 13:11:18;;;;;;;;;;;8.20;99.90;;;;;;5062014;28;19992;-69
2023/03/01 13:13:46;;;;;;;;;;;8.40;99.90;;;;;;5062024;28;19980;-68
2023/03/01 13:16:22;;;;;;;;;;;8.60;99.90;;;;;;5061274;28;19936;-69
2023/03/01 13:18:48;;;;;;;;;;;8.60;99.90;;;;;;5062055;28;19927;-69
2023/03/01 13:21:29;;;;;;;;;;;8.50;99.90;;;;;;5065979;28;19992;-69
2023/03/01 13:23:57;;;;;;;;;;;8.60;99.90;;;;;;5065486;28;20256;-69
2023/03/01 13:26:23;;;;;;;;;;;8.70;99.90;;;;;;5064315;28;19927;-69
2023/03/01 13:28:51;;;;;;;;;;;8.60;99.90;;;;;;5065885;28;19921;-70
2023/03/01 13:31:37;;;;;;;;;;;8.60;99.90;;;;;;5057598;28;20115;-69
2023/03/01 13:34:07;;;;;;;;;;;8.70;99.90;;;;;;5045611;28;19927;-69
2023/03/01 13:36:47;;;;;;;;;;;8.60;99.90;;;;;;5044776;28;19929;-69
2023/03/01 13:39:31;;;;;;;;;;;8.80;99.90;;;;;;5061719;28;20115;-69
2023/03/01 13:41:59;;;;;;;;;;;8.70;99.90;;;;;;5058657;28;20260;-69
2023/03/01 13:44:28;;;;;;;;;;;8.70;99.90;;;;;;5065646;28;19929;-68
2023/03/01 13:46:58;;;;;;;;;;;8.80;99.90;;;;;;5064984;28;19935;-69
2023/03/01 13:49:27;;;;;;;;;;;8.80;99.90;;;;;;5064864;28;20230;-69
2023/03/01 13:51:54;;;;;;;;;;;8.90;99.90;;;;;;5065188;28;19927;-69
2023/03/01 13:54:25;;;;;;;;;;;8.90;99.90;;;;;;5064722;28;19952;-69
2023/03/01 13:56:54;;;;;;;;;;;9.00;99.90;;;;;;5063839;28;20227;-69
2023/03/01 13:59:21;;;;;;;;;;;9.20;99.90;;;;;;5065110;28;20016;-69
2023/03/01 14:01:53;;;;;;;;;;;9.30;99.90;;;;;;5064887;28;20223;-68
2023/03/01 14:04:21;;;;;;;;;;;9.20;99.90;;;;;;5064834;28;19978;-69
2023/03/01 14:06:48;;;;;;;;;;;9.00;99.90;;;;;;5063747;28;20007;-69
2023/03/01 14:09:16;;;;;;;;;;;9.00;99.90;;;;;;5064814;28;20159;-68
2023/03/01 14:11:55;;;;;;;;;;;9.20;99.90;;;;;;5064338;28;19921;-70
2023/03/01 14:14:40;;;;;;;;;;;9.20;99.90;;;;;;5061660;28;19921;-69
2023/03/01 14:17:14;;;;;;;;;;;9.30;99.90;;;;;;5060462;28;19942;-69
2023/03/01 14:19:44;;;;;;;;;;;9.50;99.90;;;;;;5064207;28;20003;-70
2023/03/01 14:22:15;;;;;;;;;;;9.70;99.90;;;;;;5064616;28;19924;-69
2023/03/01 14:24:47;;;;;;;;;;;9.70;99.90;;;;;;5054317;28;19988;-69
2023/03/01 14:27:14;;;;;;;;;;;9.70;99.90;;;;;;5043980;28;19921;-69
2023/03/01 14:29:55;;;;;;;;;;;9.50;99.90;;;;;;5041968;28;19991;-69
2023/03/01 14:32:25;;;;;;;;;;;9.50;99.90;;;;;;5043574;28;19936;-69